sensor_id;sensor_type;location;lat;lon;timestamp;P1;durP1;ratioP1;P2;durP2;ratioP2
23181;SDS011;11759;51.282;6.642;2022-11-20T00:01:10;40.28;;;20.25;;
23181;SDS011;11759;51.282;6.642;2022-11-20T00:03:41;45.20;;;20.25;;
23181;SDS011;11759;51.282;6.642;2022-11-20T00:06:12;37.90;;;19.05;;
23181;SDS011;11759;51.282;6.642;2022-11-20T00:08:43;41.72;;;20.55;;
23181;SDS011;11759;51.282;6.642;2022-11-20T00:11:14;45.30;;;20.75;;
23181;SDS011;11759;51.282;6.642;2022-11-20T00:13:43;40.47;;;20.75;;
23181;SDS011;11759;51.282;6.642;2022-11-20T00:16:10;48.90;;;21.55;;
23181;SDS011;11759;51.282;6.642;2022-11-20T00:18:38;42.28;;;21.48;;
23181;SDS011;11759;51.282;6.642;2022-11-20T00:21:06;38.92;;;20.10;;
23181;SDS011;11759;51.282;6.642;2022-11-20T00:23:34;38.00;;;20.10;;
23181;SDS011;11759;51.282;6.642;2022-11-20T00:26:02;39.15;;;19.55;;
23181;SDS011;11759;51.282;6.642;2022-11-20T00:28:32;41.65;;;20.58;;
23181;SDS011;11759;51.282;6.642;2022-11-20T00:33:33;40.03;;;20.98;;
23181;SDS011;11759;51.282;6.642;2022-11-20T00:36:01;41.10;;;21.13;;
23181;SDS011;11759;51.282;6.642;2022-11-20T00:38:30;43.35;;;21.17;;
23181;SDS011;11759;51.282;6.642;2022-11-20T00:40:58;40.20;;;19.83;;
23181;SDS011;11759;51.282;6.642;2022-11-20T00:43:25;38.75;;;20.30;;
23181;SDS011;11759;51.282;6.642;2022-11-20T00:45:58;43.22;;;21.75;;
23181;SDS011;11759;51.282;6.642;2022-11-20T00:48:26;45.53;;;21.63;;
23181;SDS011;11759;51.282;6.642;2022-11-20T00:50:53;45.72;;;22.45;;
23181;SDS011;11759;51.282;6.642;2022-11-20T00:53:20;44.22;;;20.95;;
23181;SDS011;11759;51.282;6.642;2022-11-20T00:55:54;42.00;;;20.42;;
23181;SDS011;11759;51.282;6.642;2022-11-20T00:58:24;46.05;;;21.70;;
23181;SDS011;11759;51.282;6.642;2022-11-20T01:00:52;43.97;;;21.23;;
23181;SDS011;11759;51.282;6.642;2022-11-20T01:03:19;46.08;;;21.52;;
23181;SDS011;11759;51.282;6.642;2022-11-20T01:05:52;49.28;;;23.45;;
23181;SDS011;11759;51.282;6.642;2022-11-20T01:08:19;45.60;;;21.35;;
23181;SDS011;11759;51.282;6.642;2022-11-20T01:10:45;43.05;;;19.60;;
23181;SDS011;11759;51.282;6.642;2022-11-20T01:13:12;42.75;;;21.42;;
23181;SDS011;11759;51.282;6.642;2022-11-20T01:16:01;49.40;;;21.50;;
23181;SDS011;11759;51.282;6.642;2022-11-20T01:18:29;44.10;;;21.40;;
23181;SDS011;11759;51.282;6.642;2022-11-20T01:21:00;46.60;;;21.50;;
23181;SDS011;11759;51.282;6.642;2022-11-20T01:23:32;43.70;;;21.25;;
23181;SDS011;11759;51.282;6.642;2022-11-20T01:28:30;41.35;;;20.52;;
23181;SDS011;11759;51.282;6.642;2022-11-20T01:30:57;41.47;;;20.70;;
23181;SDS011;11759;51.282;6.642;2022-11-20T01:33:24;47.67;;;22.38;;
23181;SDS011;11759;51.282;6.642;2022-11-20T01:35:51;48.22;;;21.23;;
23181;SDS011;11759;51.282;6.642;2022-11-20T01:38:18;45.15;;;22.40;;
23181;SDS011;11759;51.282;6.642;2022-11-20T01:40:53;49.72;;;23.17;;
23181;SDS011;11759;51.282;6.642;2022-11-20T01:43:22;43.70;;;22.42;;
23181;SDS011;11759;51.282;6.642;2022-11-20T01:51:29;44.75;;;20.75;;
23181;SDS011;11759;51.282;6.642;2022-11-20T01:54:00;42.30;;;20.83;;
23181;SDS011;11759;51.282;6.642;2022-11-20T01:56:31;47.72;;;21.98;;
23181;SDS011;11759;51.282;6.642;2022-11-20T01:59:01;44.55;;;21.83;;
23181;SDS011;11759;51.282;6.642;2022-11-20T02:01:31;47.33;;;22.40;;
23181;SDS011;11759;51.282;6.642;2022-11-20T02:03:58;49.38;;;22.30;;
23181;SDS011;11759;51.282;6.642;2022-11-20T02:06:26;43.85;;;20.95;;
23181;SDS011;11759;51.282;6.642;2022-11-20T02:08:54;45.42;;;22.50;;
23181;SDS011;11759;51.282;6.642;2022-11-20T02:11:21;42.45;;;21.13;;
23181;SDS011;11759;51.282;6.642;2022-11-20T02:13:48;44.58;;;21.42;;
23181;SDS011;11759;51.282;6.642;2022-11-20T02:16:23;45.28;;;21.60;;
23181;SDS011;11759;51.282;6.642;2022-11-20T02:18:52;46.22;;;22.13;;
23181;SDS011;11759;51.282;6.642;2022-11-20T02:21:25;46.25;;;22.50;;
23181;SDS011;11759;51.282;6.642;2022-11-20T02:26:33;41.63;;;20.15;;
23181;SDS011;11759;51.282;6.642;2022-11-20T02:29:04;49.33;;;21.33;;
23181;SDS011;11759;51.282;6.642;2022-11-20T02:31:38;49.38;;;22.02;;
23181;SDS011;11759;51.282;6.642;2022-11-20T02:34:07;46.25;;;21.33;;
23181;SDS011;11759;51.282;6.642;2022-11-20T02:36:34;44.00;;;18.63;;
23181;SDS011;11759;51.282;6.642;2022-11-20T02:39:02;41.55;;;19.70;;
23181;SDS011;11759;51.282;6.642;2022-11-20T02:41:34;41.30;;;19.67;;
23181;SDS011;11759;51.282;6.642;2022-11-20T02:44:02;47.33;;;20.98;;
23181;SDS011;11759;51.282;6.642;2022-11-20T02:46:30;43.17;;;19.73;;
23181;SDS011;11759;51.282;6.642;2022-11-20T02:48:57;44.90;;;18.75;;
23181;SDS011;11759;51.282;6.642;2022-11-20T02:51:24;47.08;;;19.63;;
23181;SDS011;11759;51.282;6.642;2022-11-20T02:53:51;47.10;;;19.60;;
23181;SDS011;11759;51.282;6.642;2022-11-20T02:56:18;39.97;;;18.90;;
23181;SDS011;11759;51.282;6.642;2022-11-20T02:58:44;46.25;;;19.58;;
23181;SDS011;11759;51.282;6.642;2022-11-20T03:01:11;41.63;;;19.45;;
23181;SDS011;11759;51.282;6.642;2022-11-20T03:03:38;41.75;;;19.42;;
23181;SDS011;11759;51.282;6.642;2022-11-20T03:06:05;49.63;;;20.63;;
23181;SDS011;11759;51.282;6.642;2022-11-20T03:08:32;45.03;;;19.15;;
23181;SDS011;11759;51.282;6.642;2022-11-20T03:11:03;48.05;;;21.30;;
23181;SDS011;11759;51.282;6.642;2022-11-20T03:13:33;49.60;;;19.55;;
23181;SDS011;11759;51.282;6.642;2022-11-20T03:16:34;47.28;;;22.65;;
23181;SDS011;11759;51.282;6.642;2022-11-20T03:18:53;51.00;;;20.13;;
23181;SDS011;11759;51.282;6.642;2022-11-20T03:21:20;45.17;;;19.33;;
23181;SDS011;11759;51.282;6.642;2022-11-20T03:23:46;46.47;;;19.77;;
23181;SDS011;11759;51.282;6.642;2022-11-20T03:26:14;43.65;;;19.15;;
23181;SDS011;11759;51.282;6.642;2022-11-20T03:28:48;43.15;;;19.60;;
23181;SDS011;11759;51.282;6.642;2022-11-20T03:31:17;47.35;;;21.02;;
23181;SDS011;11759;51.282;6.642;2022-11-20T03:33:46;45.03;;;20.50;;
23181;SDS011;11759;51.282;6.642;2022-11-20T03:36:14;49.17;;;20.50;;
23181;SDS011;11759;51.282;6.642;2022-11-20T03:38:42;44.65;;;19.85;;
23181;SDS011;11759;51.282;6.642;2022-11-20T03:41:13;47.92;;;20.63;;
23181;SDS011;11759;51.282;6.642;2022-11-20T03:43:51;42.78;;;19.73;;
23181;SDS011;11759;51.282;6.642;2022-11-20T03:46:20;50.65;;;21.58;;
23181;SDS011;11759;51.282;6.642;2022-11-20T03:48:47;49.92;;;20.70;;
23181;SDS011;11759;51.282;6.642;2022-11-20T03:51:18;53.25;;;21.95;;
23181;SDS011;11759;51.282;6.642;2022-11-20T03:53:59;57.17;;;23.60;;
23181;SDS011;11759;51.282;6.642;2022-11-20T03:56:28;54.17;;;23.73;;
23181;SDS011;11759;51.282;6.642;2022-11-20T03:58:56;54.10;;;23.23;;
23181;SDS011;11759;51.282;6.642;2022-11-20T04:01:24;55.47;;;24.20;;
23181;SDS011;11759;51.282;6.642;2022-11-20T04:03:53;54.10;;;23.05;;
23181;SDS011;11759;51.282;6.642;2022-11-20T04:06:22;54.08;;;22.52;;
23181;SDS011;11759;51.282;6.642;2022-11-20T04:08:50;54.20;;;23.65;;
23181;SDS011;11759;51.282;6.642;2022-11-20T04:11:26;57.40;;;25.00;;
23181;SDS011;11759;51.282;6.642;2022-11-20T04:13:56;52.75;;;22.65;;
23181;SDS011;11759;51.282;6.642;2022-11-20T04:16:25;53.25;;;22.90;;
23181;SDS011;11759;51.282;6.642;2022-11-20T04:18:53;55.92;;;22.80;;
23181;SDS011;11759;51.282;6.642;2022-11-20T04:21:20;53.60;;;24.00;;
23181;SDS011;11759;51.282;6.642;2022-11-20T04:23:48;59.53;;;25.77;;
23181;SDS011;11759;51.282;6.642;2022-11-20T04:26:15;53.75;;;26.58;;
23181;SDS011;11759;51.282;6.642;2022-11-20T04:28:43;58.40;;;25.90;;
23181;SDS011;11759;51.282;6.642;2022-11-20T04:31:10;56.00;;;26.00;;
23181;SDS011;11759;51.282;6.642;2022-11-20T04:33:39;61.17;;;26.92;;
23181;SDS011;11759;51.282;6.642;2022-11-20T04:36:11;54.25;;;24.73;;
23181;SDS011;11759;51.282;6.642;2022-11-20T04:38:42;61.03;;;25.77;;
23181;SDS011;11759;51.282;6.642;2022-11-20T04:41:16;54.55;;;25.05;;
23181;SDS011;11759;51.282;6.642;2022-11-20T04:43:51;59.45;;;27.08;;
23181;SDS011;11759;51.282;6.642;2022-11-20T04:46:19;51.80;;;23.92;;
23181;SDS011;11759;51.282;6.642;2022-11-20T04:48:47;56.38;;;25.77;;
23181;SDS011;11759;51.282;6.642;2022-11-20T04:51:14;54.05;;;24.58;;
23181;SDS011;11759;51.282;6.642;2022-11-20T04:53:41;48.17;;;23.48;;
23181;SDS011;11759;51.282;6.642;2022-11-20T04:56:08;49.72;;;23.67;;
23181;SDS011;11759;51.282;6.642;2022-11-20T04:58:37;56.90;;;24.95;;
23181;SDS011;11759;51.282;6.642;2022-11-20T05:01:09;49.88;;;23.10;;
23181;SDS011;11759;51.282;6.642;2022-11-20T05:03:40;52.38;;;22.45;;
23181;SDS011;11759;51.282;6.642;2022-11-20T05:06:09;50.72;;;23.05;;
23181;SDS011;11759;51.282;6.642;2022-11-20T05:08:37;49.08;;;23.25;;
23181;SDS011;11759;51.282;6.642;2022-11-20T05:11:08;50.00;;;24.00;;
23181;SDS011;11759;51.282;6.642;2022-11-20T05:13:36;50.80;;;24.17;;
23181;SDS011;11759;51.282;6.642;2022-11-20T05:16:07;54.97;;;24.58;;
23181;SDS011;11759;51.282;6.642;2022-11-20T05:18:39;52.35;;;23.25;;
23181;SDS011;11759;51.282;6.642;2022-11-20T05:21:06;48.67;;;22.40;;
23181;SDS011;11759;51.282;6.642;2022-11-20T05:23:33;54.67;;;25.35;;
23181;SDS011;11759;51.282;6.642;2022-11-20T05:26:00;49.90;;;22.88;;
23181;SDS011;11759;51.282;6.642;2022-11-20T05:28:27;52.80;;;25.17;;
23181;SDS011;11759;51.282;6.642;2022-11-20T05:30:55;51.42;;;23.45;;
23181;SDS011;11759;51.282;6.642;2022-11-20T05:33:22;57.33;;;24.02;;
23181;SDS011;11759;51.282;6.642;2022-11-20T05:35:49;53.67;;;24.30;;
23181;SDS011;11759;51.282;6.642;2022-11-20T05:38:15;55.13;;;23.98;;
23181;SDS011;11759;51.282;6.642;2022-11-20T05:40:42;56.50;;;23.30;;
23181;SDS011;11759;51.282;6.642;2022-11-20T05:43:09;50.20;;;22.65;;
23181;SDS011;11759;51.282;6.642;2022-11-20T05:45:36;49.60;;;23.73;;
23181;SDS011;11759;51.282;6.642;2022-11-20T05:48:03;55.70;;;23.63;;
23181;SDS011;11759;51.282;6.642;2022-11-20T05:50:29;53.85;;;24.70;;
23181;SDS011;11759;51.282;6.642;2022-11-20T05:52:59;51.55;;;24.02;;
23181;SDS011;11759;51.282;6.642;2022-11-20T05:55:27;52.08;;;23.73;;
23181;SDS011;11759;51.282;6.642;2022-11-20T05:57:54;50.67;;;23.50;;
23181;SDS011;11759;51.282;6.642;2022-11-20T06:00:21;59.88;;;24.65;;
23181;SDS011;11759;51.282;6.642;2022-11-20T06:02:48;53.25;;;24.85;;
23181;SDS011;11759;51.282;6.642;2022-11-20T06:05:15;52.22;;;24.10;;
23181;SDS011;11759;51.282;6.642;2022-11-20T06:07:42;56.72;;;25.58;;
23181;SDS011;11759;51.282;6.642;2022-11-20T06:10:09;52.28;;;23.25;;
23181;SDS011;11759;51.282;6.642;2022-11-20T06:12:36;49.08;;;23.33;;
23181;SDS011;11759;51.282;6.642;2022-11-20T06:15:03;49.13;;;22.45;;
23181;SDS011;11759;51.282;6.642;2022-11-20T06:17:30;54.67;;;23.13;;
23181;SDS011;11759;51.282;6.642;2022-11-20T06:19:57;47.42;;;23.55;;
23181;SDS011;11759;51.282;6.642;2022-11-20T06:22:24;52.97;;;24.30;;
23181;SDS011;11759;51.282;6.642;2022-11-20T06:24:51;47.08;;;22.90;;
23181;SDS011;11759;51.282;6.642;2022-11-20T06:27:17;57.67;;;23.77;;
23181;SDS011;11759;51.282;6.642;2022-11-20T06:29:44;47.88;;;23.73;;
23181;SDS011;11759;51.282;6.642;2022-11-20T06:32:11;51.38;;;23.75;;
23181;SDS011;11759;51.282;6.642;2022-11-20T06:34:38;51.40;;;23.73;;
23181;SDS011;11759;51.282;6.642;2022-11-20T06:37:04;48.08;;;22.65;;
23181;SDS011;11759;51.282;6.642;2022-11-20T06:39:31;57.50;;;23.80;;
23181;SDS011;11759;51.282;6.642;2022-11-20T06:41:58;48.13;;;24.08;;
23181;SDS011;11759;51.282;6.642;2022-11-20T06:44:25;51.58;;;23.35;;
23181;SDS011;11759;51.282;6.642;2022-11-20T06:46:52;50.58;;;22.98;;
23181;SDS011;11759;51.282;6.642;2022-11-20T06:49:18;53.00;;;23.08;;
23181;SDS011;11759;51.282;6.642;2022-11-20T06:51:45;47.47;;;23.73;;
23181;SDS011;11759;51.282;6.642;2022-11-20T06:54:12;47.17;;;22.67;;
23181;SDS011;11759;51.282;6.642;2022-11-20T06:56:38;58.33;;;25.67;;
23181;SDS011;11759;51.282;6.642;2022-11-20T06:59:05;58.42;;;24.02;;
23181;SDS011;11759;51.282;6.642;2022-11-20T07:01:32;53.30;;;24.95;;
23181;SDS011;11759;51.282;6.642;2022-11-20T07:03:59;53.83;;;22.42;;
23181;SDS011;11759;51.282;6.642;2022-11-20T07:06:25;52.80;;;22.85;;
23181;SDS011;11759;51.282;6.642;2022-11-20T07:08:52;48.28;;;22.77;;
23181;SDS011;11759;51.282;6.642;2022-11-20T07:11:18;52.00;;;23.65;;
23181;SDS011;11759;51.282;6.642;2022-11-20T07:13:45;50.88;;;22.27;;
23181;SDS011;11759;51.282;6.642;2022-11-20T07:16:11;50.72;;;23.60;;
23181;SDS011;11759;51.282;6.642;2022-11-20T07:18:38;52.60;;;23.45;;
23181;SDS011;11759;51.282;6.642;2022-11-20T07:21:08;48.78;;;22.90;;
23181;SDS011;11759;51.282;6.642;2022-11-20T07:23:35;55.22;;;24.67;;
23181;SDS011;11759;51.282;6.642;2022-11-20T07:26:03;48.40;;;22.33;;
23181;SDS011;11759;51.282;6.642;2022-11-20T07:28:31;48.92;;;23.80;;
23181;SDS011;11759;51.282;6.642;2022-11-20T07:30:58;57.03;;;25.52;;
23181;SDS011;11759;51.282;6.642;2022-11-20T07:33:24;52.05;;;23.73;;
23181;SDS011;11759;51.282;6.642;2022-11-20T07:35:51;56.92;;;25.88;;
23181;SDS011;11759;51.282;6.642;2022-11-20T07:38:17;61.60;;;26.42;;
23181;SDS011;11759;51.282;6.642;2022-11-20T07:40:44;51.08;;;24.58;;
23181;SDS011;11759;51.282;6.642;2022-11-20T07:43:10;52.58;;;24.75;;
23181;SDS011;11759;51.282;6.642;2022-11-20T07:45:37;55.42;;;24.35;;
23181;SDS011;11759;51.282;6.642;2022-11-20T07:48:03;60.97;;;27.38;;
23181;SDS011;11759;51.282;6.642;2022-11-20T07:50:30;52.63;;;25.98;;
23181;SDS011;11759;51.282;6.642;2022-11-20T07:53:01;53.70;;;25.38;;
23181;SDS011;11759;51.282;6.642;2022-11-20T07:55:28;51.60;;;23.95;;
23181;SDS011;11759;51.282;6.642;2022-11-20T07:57:55;56.13;;;25.27;;
23181;SDS011;11759;51.282;6.642;2022-11-20T08:00:23;56.28;;;27.33;;
23181;SDS011;11759;51.282;6.642;2022-11-20T08:02:49;51.80;;;25.92;;
23181;SDS011;11759;51.282;6.642;2022-11-20T08:05:16;58.50;;;27.35;;
23181;SDS011;11759;51.282;6.642;2022-11-20T08:07:43;61.30;;;27.95;;
23181;SDS011;11759;51.282;6.642;2022-11-20T08:10:11;54.70;;;25.73;;
23181;SDS011;11759;51.282;6.642;2022-11-20T08:12:45;49.67;;;25.25;;
23181;SDS011;11759;51.282;6.642;2022-11-20T08:15:31;55.85;;;25.35;;
23181;SDS011;11759;51.282;6.642;2022-11-20T08:18:02;55.17;;;24.92;;
23181;SDS011;11759;51.282;6.642;2022-11-20T08:20:50;55.20;;;25.63;;
23181;SDS011;11759;51.282;6.642;2022-11-20T08:23:16;51.17;;;24.77;;
23181;SDS011;11759;51.282;6.642;2022-11-20T08:25:43;55.80;;;25.10;;
23181;SDS011;11759;51.282;6.642;2022-11-20T08:28:10;53.03;;;25.02;;
23181;SDS011;11759;51.282;6.642;2022-11-20T08:30:46;49.70;;;24.55;;
23181;SDS011;11759;51.282;6.642;2022-11-20T08:33:13;51.88;;;24.58;;
23181;SDS011;11759;51.282;6.642;2022-11-20T08:35:40;52.47;;;24.13;;
23181;SDS011;11759;51.282;6.642;2022-11-20T08:38:08;49.58;;;24.58;;
23181;SDS011;11759;51.282;6.642;2022-11-20T08:40:35;50.15;;;23.33;;
23181;SDS011;11759;51.282;6.642;2022-11-20T08:43:01;52.55;;;25.23;;
23181;SDS011;11759;51.282;6.642;2022-11-20T08:45:28;49.95;;;24.63;;
23181;SDS011;11759;51.282;6.642;2022-11-20T08:48:03;51.67;;;23.88;;
23181;SDS011;11759;51.282;6.642;2022-11-20T08:50:30;50.38;;;24.40;;
23181;SDS011;11759;51.282;6.642;2022-11-20T08:53:05;52.42;;;25.58;;
23181;SDS011;11759;51.282;6.642;2022-11-20T08:55:32;58.72;;;25.65;;
23181;SDS011;11759;51.282;6.642;2022-11-20T08:58:02;53.08;;;25.58;;
23181;SDS011;11759;51.282;6.642;2022-11-20T09:02:56;47.60;;;22.48;;
23181;SDS011;11759;51.282;6.642;2022-11-20T09:05:24;45.17;;;22.15;;
23181;SDS011;11759;51.282;6.642;2022-11-20T09:07:51;43.72;;;22.63;;
23181;SDS011;11759;51.282;6.642;2022-11-20T09:10:18;51.03;;;25.50;;
23181;SDS011;11759;51.282;6.642;2022-11-20T09:12:50;44.17;;;24.10;;
23181;SDS011;11759;51.282;6.642;2022-11-20T09:15:18;53.35;;;24.65;;
23181;SDS011;11759;51.282;6.642;2022-11-20T09:17:55;46.28;;;22.98;;
23181;SDS011;11759;51.282;6.642;2022-11-20T09:20:26;46.10;;;24.17;;
23181;SDS011;11759;51.282;6.642;2022-11-20T09:22:55;48.05;;;23.83;;
23181;SDS011;11759;51.282;6.642;2022-11-20T09:25:22;40.72;;;21.33;;
23181;SDS011;11759;51.282;6.642;2022-11-20T09:27:55;44.20;;;22.17;;
23181;SDS011;11759;51.282;6.642;2022-11-20T09:30:23;52.72;;;23.67;;
23181;SDS011;11759;51.282;6.642;2022-11-20T09:32:50;41.55;;;23.13;;
23181;SDS011;11759;51.282;6.642;2022-11-20T09:35:17;49.25;;;22.52;;
23181;SDS011;11759;51.282;6.642;2022-11-20T09:37:44;42.22;;;22.23;;
23181;SDS011;11759;51.282;6.642;2022-11-20T09:56:20;44.97;;;20.45;;
23181;SDS011;11759;51.282;6.642;2022-11-20T09:58:50;48.85;;;22.38;;
23181;SDS011;11759;51.282;6.642;2022-11-20T10:01:19;46.05;;;21.60;;
23181;SDS011;11759;51.282;6.642;2022-11-20T10:03:55;49.90;;;21.50;;
23181;SDS011;11759;51.282;6.642;2022-11-20T10:06:33;51.63;;;21.95;;
23181;SDS011;11759;51.282;6.642;2022-11-20T10:28:39;51.22;;;23.83;;
23181;SDS011;11759;51.282;6.642;2022-11-20T10:32:04;52.72;;;22.77;;
23181;SDS011;11759;51.282;6.642;2022-11-20T10:37:11;52.55;;;22.17;;
23181;SDS011;11759;51.282;6.642;2022-11-20T10:42:28;61.35;;;23.58;;
23181;SDS011;11759;51.282;6.642;2022-11-20T10:45:00;63.83;;;23.92;;
23181;SDS011;11759;51.282;6.642;2022-11-20T10:47:35;60.72;;;23.10;;
23181;SDS011;11759;51.282;6.642;2022-11-20T10:50:03;58.67;;;23.70;;
23181;SDS011;11759;51.282;6.642;2022-11-20T11:00:26;61.90;;;25.70;;
23181;SDS011;11759;51.282;6.642;2022-11-20T11:02:53;58.97;;;23.90;;
23181;SDS011;11759;51.282;6.642;2022-11-20T11:05:22;60.65;;;24.85;;
23181;SDS011;11759;51.282;6.642;2022-11-20T11:07:56;64.45;;;24.73;;
23181;SDS011;11759;51.282;6.642;2022-11-20T11:10:35;59.65;;;24.05;;
23181;SDS011;11759;51.282;6.642;2022-11-20T11:13:31;67.07;;;23.98;;
23181;SDS011;11759;51.282;6.642;2022-11-20T11:15:57;63.22;;;25.75;;
23181;SDS011;11759;51.282;6.642;2022-11-20T11:18:31;52.05;;;22.45;;
23181;SDS011;11759;51.282;6.642;2022-11-20T11:21:01;50.38;;;21.42;;
23181;SDS011;11759;51.282;6.642;2022-11-20T11:23:35;54.17;;;23.42;;
23181;SDS011;11759;51.282;6.642;2022-11-20T11:26:04;48.80;;;20.40;;
23181;SDS011;11759;51.282;6.642;2022-11-20T11:28:33;53.63;;;20.33;;
23181;SDS011;11759;51.282;6.642;2022-11-20T11:30:59;46.88;;;19.23;;
23181;SDS011;11759;51.282;6.642;2022-11-20T11:33:30;47.22;;;20.25;;
23181;SDS011;11759;51.282;6.642;2022-11-20T11:35:58;40.10;;;19.80;;
23181;SDS011;11759;51.282;6.642;2022-11-20T11:38:36;39.95;;;19.52;;
23181;SDS011;11759;51.282;6.642;2022-11-20T11:41:05;39.13;;;18.30;;
23181;SDS011;11759;51.282;6.642;2022-11-20T11:43:34;44.15;;;20.27;;
23181;SDS011;11759;51.282;6.642;2022-11-20T11:46:41;48.45;;;21.67;;
23181;SDS011;11759;51.282;6.642;2022-11-20T11:49:14;49.05;;;19.73;;
23181;SDS011;11759;51.282;6.642;2022-11-20T11:51:47;46.42;;;20.05;;
23181;SDS011;11759;51.282;6.642;2022-11-20T11:56:51;42.15;;;18.15;;
23181;SDS011;11759;51.282;6.642;2022-11-20T11:59:26;46.58;;;20.05;;
23181;SDS011;11759;51.282;6.642;2022-11-20T12:01:57;45.97;;;19.08;;
23181;SDS011;11759;51.282;6.642;2022-11-20T12:07:45;39.10;;;16.85;;
23181;SDS011;11759;51.282;6.642;2022-11-20T12:12:54;42.65;;;17.27;;
23181;SDS011;11759;51.282;6.642;2022-11-20T12:15:30;38.85;;;18.00;;
23181;SDS011;11759;51.282;6.642;2022-11-20T12:17:59;38.20;;;17.65;;
23181;SDS011;11759;51.282;6.642;2022-11-20T12:20:27;41.83;;;18.65;;
23181;SDS011;11759;51.282;6.642;2022-11-20T12:23:09;40.42;;;17.83;;
23181;SDS011;11759;51.282;6.642;2022-11-20T12:25:42;40.38;;;18.23;;
23181;SDS011;11759;51.282;6.642;2022-11-20T12:28:16;43.85;;;18.67;;
23181;SDS011;11759;51.282;6.642;2022-11-20T12:33:39;43.08;;;19.33;;
23181;SDS011;11759;51.282;6.642;2022-11-20T12:36:27;40.08;;;18.80;;
23181;SDS011;11759;51.282;6.642;2022-11-20T12:45:07;42.13;;;18.75;;
23181;SDS011;11759;51.282;6.642;2022-11-20T12:53:27;44.80;;;19.02;;
23181;SDS011;11759;51.282;6.642;2022-11-20T12:58:49;40.60;;;19.80;;
23181;SDS011;11759;51.282;6.642;2022-11-20T13:01:39;43.47;;;20.02;;
23181;SDS011;11759;51.282;6.642;2022-11-20T13:06:57;49.03;;;19.70;;
23181;SDS011;11759;51.282;6.642;2022-11-20T13:09:23;50.13;;;20.98;;
23181;SDS011;11759;51.282;6.642;2022-11-20T13:19:41;48.75;;;21.63;;
23181;SDS011;11759;51.282;6.642;2022-11-20T13:22:23;51.15;;;21.70;;
23181;SDS011;11759;51.282;6.642;2022-11-20T13:24:50;54.35;;;21.88;;
23181;SDS011;11759;51.282;6.642;2022-11-20T13:27:19;49.10;;;21.83;;
23181;SDS011;11759;51.282;6.642;2022-11-20T13:29:58;57.08;;;23.05;;
23181;SDS011;11759;51.282;6.642;2022-11-20T13:32:27;54.85;;;22.92;;
23181;SDS011;11759;51.282;6.642;2022-11-20T13:35:01;52.58;;;23.02;;
23181;SDS011;11759;51.282;6.642;2022-11-20T13:37:36;54.80;;;22.70;;
23181;SDS011;11759;51.282;6.642;2022-11-20T13:45:10;60.10;;;23.00;;
23181;SDS011;11759;51.282;6.642;2022-11-20T13:47:38;51.75;;;22.38;;
23181;SDS011;11759;51.282;6.642;2022-11-20T13:50:14;61.17;;;23.73;;
23181;SDS011;11759;51.282;6.642;2022-11-20T13:55:42;53.08;;;22.88;;
23181;SDS011;11759;51.282;6.642;2022-11-20T13:58:18;66.82;;;24.73;;
23181;SDS011;11759;51.282;6.642;2022-11-20T14:00:57;60.60;;;24.15;;
23181;SDS011;11759;51.282;6.642;2022-11-20T14:03:29;57.03;;;23.10;;
23181;SDS011;11759;51.282;6.642;2022-11-20T14:06:27;62.58;;;25.15;;
23181;SDS011;11759;51.282;6.642;2022-11-20T14:08:55;65.07;;;26.38;;
23181;SDS011;11759;51.282;6.642;2022-11-20T14:11:23;63.45;;;25.90;;
23181;SDS011;11759;51.282;6.642;2022-11-20T14:13:58;60.05;;;25.17;;
23181;SDS011;11759;51.282;6.642;2022-11-20T14:16:27;64.38;;;24.58;;
23181;SDS011;11759;51.282;6.642;2022-11-20T14:18:55;59.65;;;24.48;;
23181;SDS011;11759;51.282;6.642;2022-11-20T14:21:26;53.90;;;23.98;;
23181;SDS011;11759;51.282;6.642;2022-11-20T14:24:05;65.10;;;26.48;;
23181;SDS011;11759;51.282;6.642;2022-11-20T14:26:32;57.65;;;23.38;;
23181;SDS011;11759;51.282;6.642;2022-11-20T14:28:59;58.83;;;26.10;;
23181;SDS011;11759;51.282;6.642;2022-11-20T14:31:26;55.80;;;23.30;;
23181;SDS011;11759;51.282;6.642;2022-11-20T14:33:54;59.75;;;23.83;;
23181;SDS011;11759;51.282;6.642;2022-11-20T14:36:21;59.90;;;25.13;;
23181;SDS011;11759;51.282;6.642;2022-11-20T14:38:50;58.58;;;24.98;;
23181;SDS011;11759;51.282;6.642;2022-11-20T14:41:18;53.28;;;23.45;;
23181;SDS011;11759;51.282;6.642;2022-11-20T14:43:58;68.78;;;27.80;;
23181;SDS011;11759;51.282;6.642;2022-11-20T14:46:25;67.70;;;25.48;;
23181;SDS011;11759;51.282;6.642;2022-11-20T14:48:55;66.40;;;26.33;;
23181;SDS011;11759;51.282;6.642;2022-11-20T14:51:28;62.65;;;25.05;;
23181;SDS011;11759;51.282;6.642;2022-11-20T14:54:14;64.75;;;25.55;;
23181;SDS011;11759;51.282;6.642;2022-11-20T14:56:42;61.38;;;23.98;;
23181;SDS011;11759;51.282;6.642;2022-11-20T14:59:26;59.65;;;24.05;;
23181;SDS011;11759;51.282;6.642;2022-11-20T15:02:01;52.30;;;23.35;;
23181;SDS011;11759;51.282;6.642;2022-11-20T15:04:30;49.15;;;21.52;;
23181;SDS011;11759;51.282;6.642;2022-11-20T15:06:57;62.08;;;23.10;;
23181;SDS011;11759;51.282;6.642;2022-11-20T15:09:25;53.92;;;23.38;;
23181;SDS011;11759;51.282;6.642;2022-11-20T15:11:55;53.75;;;23.02;;
23181;SDS011;11759;51.282;6.642;2022-11-20T15:14:24;54.33;;;21.95;;
23181;SDS011;11759;51.282;6.642;2022-11-20T15:16:51;55.13;;;24.40;;
23181;SDS011;11759;51.282;6.642;2022-11-20T15:19:22;53.75;;;22.17;;
23181;SDS011;11759;51.282;6.642;2022-11-20T15:21:50;52.00;;;21.60;;
23181;SDS011;11759;51.282;6.642;2022-11-20T15:24:17;49.40;;;20.92;;
23181;SDS011;11759;51.282;6.642;2022-11-20T15:26:44;50.88;;;21.90;;
23181;SDS011;11759;51.282;6.642;2022-11-20T15:29:11;55.25;;;24.00;;
23181;SDS011;11759;51.282;6.642;2022-11-20T15:31:39;48.65;;;21.38;;
23181;SDS011;11759;51.282;6.642;2022-11-20T15:34:09;49.30;;;22.52;;
23181;SDS011;11759;51.282;6.642;2022-11-20T15:36:37;53.88;;;23.00;;
23181;SDS011;11759;51.282;6.642;2022-11-20T15:39:05;57.85;;;24.27;;
23181;SDS011;11759;51.282;6.642;2022-11-20T15:41:36;56.38;;;23.20;;
23181;SDS011;11759;51.282;6.642;2022-11-20T15:44:03;63.05;;;25.60;;
23181;SDS011;11759;51.282;6.642;2022-11-20T15:46:31;60.38;;;22.48;;
23181;SDS011;11759;51.282;6.642;2022-11-20T15:49:03;54.15;;;23.23;;
23181;SDS011;11759;51.282;6.642;2022-11-20T15:51:30;58.47;;;22.88;;
23181;SDS011;11759;51.282;6.642;2022-11-20T15:53:58;67.63;;;24.95;;
23181;SDS011;11759;51.282;6.642;2022-11-20T15:56:25;55.25;;;21.85;;
23181;SDS011;11759;51.282;6.642;2022-11-20T15:58:52;56.75;;;22.58;;
23181;SDS011;11759;51.282;6.642;2022-11-20T16:01:20;60.20;;;24.27;;
23181;SDS011;11759;51.282;6.642;2022-11-20T16:03:48;70.63;;;25.08;;
23181;SDS011;11759;51.282;6.642;2022-11-20T16:06:15;64.43;;;24.75;;
23181;SDS011;11759;51.282;6.642;2022-11-20T16:08:42;64.85;;;25.98;;
23181;SDS011;11759;51.282;6.642;2022-11-20T16:11:12;61.78;;;25.08;;
23181;SDS011;11759;51.282;6.642;2022-11-20T16:13:40;72.28;;;25.85;;
23181;SDS011;11759;51.282;6.642;2022-11-20T16:16:27;74.70;;;26.90;;
23181;SDS011;11759;51.282;6.642;2022-11-20T16:18:56;74.07;;;27.13;;
23181;SDS011;11759;51.282;6.642;2022-11-20T16:21:24;74.07;;;28.08;;
23181;SDS011;11759;51.282;6.642;2022-11-20T16:23:57;82.90;;;27.23;;
23181;SDS011;11759;51.282;6.642;2022-11-20T16:26:24;78.30;;;29.00;;